Time;durP1;ratioP1;P1;durP2;ratioP2;P2;SDS_P1;SDS_P2;PMS_P1;PMS_P2;Temp;Humidity;BMP_temperature;BMP_pressure;BME280_temperature;BME280_humidity;BME280_pressure;Samples;Min_cycle;Max_cycle;Signal;HPM_P1;HPM_P2
2021/01/28 04:02:07;;;;;;;19.45;12.60;;;;;;;2.25;100.00;98755.64;1745421;78;22011;-69
2021/01/28 04:04:54;;;;;;;17.50;13.08;;;;;;;2.22;100.00;98749.55;1745535;80;21093;-69
2021/01/28 04:07:40;;;;;;;21.50;13.62;;;;;;;2.20;100.00;98729.16;1701135;82;21467;-69
2021/01/28 04:10:15;;;;;;;20.15;13.70;;;;;;;2.19;100.00;98737.81;1768529;79;21556;-68
2021/01/28 04:12:45;;;;;;;23.02;14.53;;;;;;;2.18;100.00;98759.36;1761483;80;20999;-68
2021/01/28 04:15:32;;;;;;;26.50;15.78;;;;;;;2.16;100.00;98769.02;1756845;80;21205;-68
2021/01/28 04:18:02;;;;;;;24.67;15.53;;;;;;;2.15;100.00;98773.33;1765388;79;21138;-68
2021/01/28 04:20:34;;;;;;;24.12;15.10;;;;;;;2.15;100.00;98770.76;1763588;79;21523;-68
2021/01/28 04:23:04;;;;;;;23.77;15.18;;;;;;;2.15;100.00;98774.61;1770688;79;21576;-69
2021/01/28 04:25:36;;;;;;;23.05;14.28;;;;;;;2.15;100.00;98768.67;1767548;79;20947;-68
2021/01/28 04:28:06;;;;;;;30.05;19.75;;;;;;;2.14;100.00;98766.59;1725488;81;21161;-68
2021/01/28 04:30:48;;;;;;;23.87;15.70;;;;;;;2.19;100.00;98769.95;1828502;78;23949;-70
2021/01/28 04:33:16;;;;;;;27.02;17.35;;;;;;;2.15;100.00;98783.61;1796282;79;21184;-69
2021/01/28 04:35:57;;;;;;;24.13;16.47;;;;;;;2.17;100.00;98773.19;1821362;78;22718;-68
2021/01/28 04:38:26;;;;;;;27.58;17.60;;;;;;;2.12;100.00;98762.12;1790864;79;20921;-70
2021/01/28 04:41:29;;;;;;;22.47;15.07;;;;;;;2.13;100.00;98775.28;1823416;78;23418;-69
2021/01/28 04:43:58;;;;;;;22.27;15.13;;;;;;;2.08;100.00;98769.81;1769458;79;21559;-70
2021/01/28 04:46:36;;;;;;;25.32;17.45;;;;;;;2.06;100.00;98769.19;1757882;79;21204;-70
2021/01/28 04:49:09;;;;;;;22.67;15.70;;;;;;;2.04;100.00;98759.55;1780242;79;21021;-68
2021/01/28 04:51:49;;;;;;;24.77;15.87;;;;;;;2.08;100.00;98752.31;1809944;78;22806;-70
2021/01/28 04:54:24;;;;;;;22.67;16.23;;;;;;;2.02;100.00;98770.48;1796106;79;20911;-70
2021/01/28 04:56:54;;;;;;;25.08;15.08;;;;;;;2.01;100.00;98768.89;1785856;79;22111;-68
2021/01/28 04:59:33;;;;;;;22.37;14.50;;;;;;;2.01;100.00;98788.17;1782570;77;21031;-71
2021/01/28 05:02:05;;;;;;;26.40;16.80;;;;;;;2.02;100.00;98791.05;1785575;79;21001;-70
2021/01/28 05:04:57;;;;;;;24.40;16.37;;;;;;;2.08;100.00;98813.50;1820573;78;23949;-70
2021/01/28 05:07:31;;;;;;;26.52;16.77;;;;;;;2.05;100.00;98816.91;1764971;79;21495;-69
2021/01/28 05:10:29;;;;;;;29.90;16.52;;;;;;;2.07;100.00;98827.81;1795020;78;21251;-68
2021/01/28 05:13:10;;;;;;;22.20;16.77;;;;;;;2.10;100.00;98815.44;1832733;78;23501;-69
2021/01/28 05:15:43;;;;;;;25.30;16.57;;;;;;;2.07;100.00;98811.91;1741650;81;20981;-68
2021/01/28 05:18:35;;;;;;;26.00;16.37;;;;;;;2.07;100.00;98825.25;1769112;80;21741;-67
2021/01/28 05:21:18;;;;;;;27.58;15.90;;;;;;;2.05;100.00;98817.71;1737243;80;21093;-69
2021/01/28 05:23:48;;;;;;;27.07;18.15;;;;;;;2.06;100.00;98828.30;1772993;80;21571;-69
2021/01/28 05:26:33;;;;;;;26.12;17.07;;;;;;;2.06;100.00;98821.08;1765855;79;21582;-68
2021/01/28 05:29:22;;;;;;;25.00;15.85;;;;;;;2.06;100.00;98812.88;1734132;81;20989;-68
2021/01/28 05:32:02;;;;;;;27.03;16.50;;;;;;;2.07;100.00;98804.20;1812529;78;22426;-68
2021/01/28 05:34:32;;;;;;;24.63;15.65;;;;;;;2.03;100.00;98808.55;1780829;79;21003;-67
2021/01/28 05:37:13;;;;;;;24.77;16.27;;;;;;;2.00;100.00;98821.23;1731821;81;22612;-66
2021/01/28 05:40:08;;;;;;;24.70;16.57;;;;;;;2.02;100.00;98815.46;1829070;77;23257;-66
2021/01/28 05:42:41;;;;;;;24.32;16.20;;;;;;;1.98;100.00;98805.68;1782383;79;21615;-69
2021/01/28 05:45:33;;;;;;;22.98;15.53;;;;;;;1.96;100.00;98830.23;1781638;79;21300;-69
2021/01/28 05:48:28;;;;;;;27.80;17.73;;;;;;;1.96;100.00;98819.95;1783556;79;21122;-72
2021/01/28 05:51:18;;;;;;;28.60;17.37;;;;;;;1.98;100.00;98810.82;1752646;81;21064;-72
2021/01/28 05:53:59;;;;;;;27.30;18.20;;;;;;;1.95;100.00;98806.31;1736703;81;21061;-72
2021/01/28 05:56:33;;;;;;;28.32;18.87;;;;;;;1.96;100.00;98792.98;1732985;82;21047;-72
2021/01/28 05:59:08;;;;;;;29.32;18.50;;;;;;;1.96;100.00;98789.13;1698827;82;21524;-71
2021/01/28 06:01:58;;;;;;;28.38;17.15;;;;;;;1.98;100.00;98805.68;1734329;82;21936;-74
2021/01/28 06:05:35;;;;;;;24.23;16.67;;;;;;;2.04;100.00;98794.24;1719191;77;24229;-74
2021/01/28 06:08:43;;;;;;;23.77;15.65;;;;;;;2.03;100.00;98808.06;1685321;83;20970;-75
2021/01/28 06:11:40;;;;;;;23.55;15.20;;;;;;;2.04;100.00;98808.38;1681125;83;21584;-72
2021/01/28 06:14:46;;;;;;;25.70;17.30;;;;;;;2.06;100.00;98802.60;1694832;83;21620;-73
2021/01/28 06:17:43;;;;;;;23.92;15.72;;;;;;;2.08;100.00;98823.79;1670956;85;21018;-74
2021/01/28 06:20:40;;;;;;;20.45;14.33;;;;;;;2.12;100.00;98826.84;1682583;83;21731;-74
2021/01/28 06:23:49;;;;;;;21.17;14.63;;;;;;;2.14;100.00;98838.56;1636359;85;21078;-73
2021/01/28 06:26:30;;;;;;;23.07;15.40;;;;;;;2.17;100.00;98845.16;1680835;85;21392;-74
2021/01/28 06:29:18;;;;;;;21.35;14.35;;;;;;;2.19;100.00;98842.72;1677974;85;20999;-73
2021/01/28 06:32:31;;;;;;;22.98;13.90;;;;;;;2.21;100.00;98860.58;1681372;85;21670;-74
2021/01/28 06:35:56;;;;;;;22.93;15.00;;;;;;;2.27;100.00;98829.05;1819958;77;22790;-74
2021/01/28 06:39:09;;;;;;;23.00;15.72;;;;;;;2.25;100.00;98846.42;1780402;79;20917;-74
2021/01/28 06:42:12;;;;;;;22.90;14.75;;;;;;;2.27;100.00;98862.96;1792007;79;21250;-74
2021/01/28 06:45:16;;;;;;;25.20;16.33;;;;;;;2.34;100.00;98862.62;1806884;78;23335;-75
2021/01/28 06:48:06;;;;;;;23.57;14.65;;;;;;;2.36;100.00;98865.85;1793309;79;20942;-74
2021/01/28 06:50:51;;;;;;;26.95;17.12;;;;;;;2.41;100.00;98859.72;1782778;79;21371;-78
2021/01/28 06:53:31;;;;;;;26.02;16.20;;;;;;;2.48;100.00;98870.16;1790611;79;21022;-72
2021/01/28 06:56:42;;;;;;;28.60;17.65;;;;;;;2.52;100.00;98868.86;1784613;79;21461;-72
2021/01/28 06:59:51;;;;;;;;;;;;;;;2.56;100.00;98867.56;1726649;82;21009;-73
2021/01/28 07:02:44;;;;;;;22.22;14.63;;;;;;;2.61;100.00;98848.10;1737133;82;20469;-72
2021/01/28 07:05:29;;;;;;;21.93;13.80;;;;;;;2.63;100.00;98835.06;1735733;81;22248;-70
2021/01/28 07:08:24;;;;;;;21.85;14.63;;;;;;;2.66;100.00;98843.74;1673659;81;21081;-71
2021/01/28 07:11:31;;;;;;;21.62;14.38;;;;;;;2.65;100.00;98873.81;1739072;81;21798;-72
2021/01/28 07:14:18;;;;;;;21.23;13.58;;;;;;;2.65;100.00;98872.53;1735196;81;20949;-71
2021/01/28 07:17:26;;;;;;;23.33;15.90;;;;;;;2.70;100.00;98875.88;1807856;78;23198;-72
2021/01/28 07:20:03;;;;;;;24.37;15.23;;;;;;;2.70;100.00;98855.78;1801919;79;21541;-73
2021/01/28 07:22:37;;;;;;;23.00;14.20;;;;;;;2.71;100.00;98850.46;1793149;79;22614;-74
2021/01/28 07:25:36;;;;;;;23.70;15.35;;;;;;;2.73;100.00;98855.43;1786698;77;21073;-72
2021/01/28 07:28:22;;;;;;;23.77;15.32;;;;;;;2.74;100.00;98863.00;1800643;79;20992;-76
2021/01/28 07:30:55;;;;;;;23.67;14.47;;;;;;;2.75;100.00;98861.23;1792241;79;20978;-73
2021/01/28 07:33:49;;;;;;;22.30;14.53;;;;;;;2.79;100.00;98852.20;1824236;76;23321;-75
2021/01/28 07:36:33;;;;;;;27.20;16.70;;;;;;;2.76;100.00;98862.82;1776135;79;21053;-74
2021/01/28 07:39:33;;;;;;;26.87;16.67;;;;;;;2.81;100.00;98867.00;1819197;76;24804;-76
2021/01/28 07:42:25;;;;;;;25.70;15.25;;;;;;;2.78;100.00;98862.19;1795538;78;21551;-76
2021/01/28 07:44:57;;;;;;;26.33;15.98;;;;;;;2.78;100.00;98851.89;1739615;79;21381;-78
2021/01/28 07:47:47;;;;;;;25.17;15.70;;;;;;;2.77;100.00;98858.81;1785749;79;21010;-76
2021/01/28 07:50:34;;;;;;;27.60;16.97;;;;;;;2.80;100.00;98854.59;1787666;79;20915;-75
2021/01/28 07:53:37;;;;;;;31.65;18.98;;;;;;;2.85;100.00;98848.97;1789509;79;21049;-78
2021/01/28 07:56:05;;;;;;;23.95;15.10;;;;;;;2.90;100.00;98851.83;1769135;79;21007;-69
2021/01/28 07:58:35;;;;;;;29.55;16.30;;;;;;;2.98;100.00;98844.06;1791466;78;21363;-80
2021/01/28 08:01:07;;;;;;;27.65;17.10;;;;;;;3.03;100.00;98837.12;1762189;78;21297;-78
2021/01/28 08:03:37;;;;;;;;;;;;;;;3.10;100.00;98822.59;1712794;82;20954;-76
2021/01/28 08:06:10;;;;;;;29.72;16.02;;;;;;;3.15;100.00;98847.37;1727926;80;20519;-69
2021/01/28 08:08:39;;;;;;;27.98;17.67;;;;;;;3.20;100.00;98823.68;1733838;81;21215;-77
2021/01/28 08:11:17;;;;;;;27.58;18.40;;;;;;;3.25;100.00;98834.26;1758108;79;21214;-76
2021/01/28 08:13:45;;;;;;;26.00;17.10;;;;;;;3.30;100.00;98844.88;1753034;81;20946;-77
2021/01/28 08:16:17;;;;;;;27.52;16.15;;;;;;;3.29;100.00;98835.52;1754082;80;21612;-69
2021/01/28 08:18:48;;;;;;;28.57;18.73;;;;;;;3.30;100.00;98826.35;1766393;80;21076;-76
2021/01/28 08:21:22;;;;;;;25.27;16.75;;;;;;;3.30;100.00;98822.48;1718067;81;21842;-75
2021/01/28 08:23:51;;;;;;;25.92;14.23;;;;;;;3.29;100.00;98817.00;1767843;80;22226;-76
2021/01/28 08:26:29;;;;;;;25.30;15.58;;;;;;;3.31;100.00;98826.66;1768635;79;21098;-76
2021/01/28 08:29:18;;;;;;;25.70;16.23;;;;;;;3.35;100.00;98819.39;1748900;81;21073;-76
2021/01/28 08:31:53;;;;;;;24.77;15.78;;;;;;;3.38;100.00;98817.28;1737250;80;20996;-76
2021/01/28 08:34:25;;;;;;;24.00;14.98;;;;;;;3.43;100.00;98814.18;1733193;82;21044;-77
2021/01/28 08:37:03;;;;;;;28.10;17.00;;;;;;;3.48;100.00;98797.70;1719318;82;22263;-74
2021/01/28 08:39:34;;;;;;;32.67;20.15;;;;;;;3.53;100.00;98790.28;1754009;81;21146;-74
2021/01/28 08:42:10;;;;;;;30.25;18.30;;;;;;;3.60;100.00;98794.27;1754886;81;21240;-76
2021/01/28 08:44:39;;;;;;;31.82;17.60;;;;;;;3.69;100.00;98794.49;1750429;81;21063;-78
2021/01/28 08:47:21;;;;;;;34.27;18.77;;;;;;;3.77;100.00;98775.58;1749844;81;21510;-77
2021/01/28 08:50:03;;;;;;;27.58;17.40;;;;;;;3.83;100.00;98756.84;1749310;81;22129;-74
2021/01/28 08:52:31;;;;;;;32.10;17.40;;;;;;;3.89;100.00;98750.97;1744654;79;21060;-73
2021/01/28 08:55:20;;;;;;;33.33;20.45;;;;;;;3.95;100.00;98751.56;1760313;81;21089;-70
2021/01/28 08:57:50;;;;;;;30.70;18.55;;;;;;;3.99;100.00;98754.59;1728879;81;21253;-75
2021/01/28 09:00:21;;;;;;;28.17;14.78;;;;;;;4.05;100.00;98761.13;1746378;81;21642;-74
2021/01/28 09:02:52;;;;;;;31.50;17.17;;;;;;;4.10;100.00;98754.14;1742960;81;21383;-75
2021/01/28 09:05:28;;;;;;;28.75;15.85;;;;;;;4.12;100.00;98743.94;1756593;81;21221;-77
2021/01/28 09:08:09;;;;;;;28.40;16.67;;;;;;;4.14;100.00;98752.31;1742439;81;21202;-77
2021/01/28 09:10:40;;;;;;;21.02;13.62;;;;;;;4.15;100.00;98751.33;1747812;81;21052;-78
2021/01/28 09:13:22;;;;;;;25.25;16.25;;;;;;;4.17;100.00;98762.77;1752942;80;21200;-78
2021/01/28 09:16:08;;;;;;;29.18;16.82;;;;;;;4.22;100.00;98752.71;1740869;81;22286;-78
2021/01/28 09:18:46;;;;;;;26.55;15.58;;;;;;;4.30;100.00;98777.11;1737909;81;21213;-75
2021/01/28 09:21:16;;;;;;;30.57;16.67;;;;;;;4.45;100.00;98820.17;1750540;81;21053;-77
2021/01/28 09:23:58;;;;;;;26.25;16.67;;;;;;;4.59;100.00;98813.72;1744426;81;21183;-74
2021/01/28 09:26:35;;;;;;;25.77;15.50;;;;;;;4.70;100.00;98821.95;1740416;81;21059;-79
2021/01/28 09:29:21;;;;;;;31.55;15.43;;;;;;;4.79;100.00;98813.15;1756898;81;21585;-77
2021/01/28 09:31:51;;;;;;;28.10;15.43;;;;;;;4.83;100.00;98824.71;1744127;81;21274;-76
2021/01/28 09:34:29;;;;;;;29.30;16.73;;;;;;;4.81;100.00;98826.66;1739371;81;21632;-78
2021/01/28 09:37:08;;;;;;;28.92;18.27;;;;;;;4.79;100.00;98837.67;1743828;81;21067;-69
2021/01/28 09:39:46;;;;;;;30.23;16.12;;;;;;;4.75;100.00;98835.14;1727629;81;21368;-77
2021/01/28 09:42:31;;;;;;;27.50;17.50;;;;;;;4.73;100.00;98837.89;1716839;82;21203;-77
2021/01/28 09:45:10;;;;;;;25.12;15.90;;;;;;;4.69;100.00;98822.45;1753627;81;22039;-79
2021/01/28 09:47:38;;;;;;;25.35;16.40;;;;;;;4.67;100.00;98826.21;1708671;82;21089;-78
2021/01/28 09:50:10;;;;;;;33.18;18.98;;;;;;;4.67;100.00;98826.21;1729196;82;21162;-78
2021/01/28 09:52:41;;;;;;;34.75;19.37;;;;;;;4.67;100.00;98835.25;1742018;82;21205;-77
2021/01/28 09:55:12;;;;;;;35.70;21.75;;;;;;;4.68;100.00;98811.03;1742776;80;21360;-79
2021/01/28 09:57:40;;;;;;;32.20;19.52;;;;;;;4.71;100.00;98804.22;1742581;82;21144;-77
2021/01/28 10:00:12;;;;;;;32.30;17.10;;;;;;;4.73;100.00;98817.23;1740251;80;21012;-69
2021/01/28 10:02:55;;;;;;;;;;;;;;;4.76;100.00;98819.95;1723215;80;21017;-75
2021/01/28 10:05:27;;;;;;;26.23;16.25;;;;;;;4.80;100.00;98822.48;1731408;80;20231;-75
2021/01/28 10:07:56;;;;;;;29.15;17.57;;;;;;;4.80;100.00;98831.02;1726653;80;22050;-75
2021/01/28 10:10:27;;;;;;;32.95;21.00;;;;;;;4.82;100.00;98843.77;1728009;80;21003;-76
2021/01/28 10:13:00;;;;;;;29.48;17.90;;;;;;;4.81;100.00;98853.30;1722235;80;21227;-76
2021/01/28 10:15:28;;;;;;;33.48;19.20;;;;;;;4.83;100.00;98867.31;1729360;80;20958;-75
2021/01/28 10:17:56;;;;;;;27.95;15.98;;;;;;;4.85;100.00;98856.33;1728156;80;21659;-72
2021/01/28 10:20:25;;;;;;;25.57;16.02;;;;;;;4.88;100.00;98864.98;1728564;82;21840;-77
2021/01/28 10:22:55;;;;;;;22.07;15.25;;;;;;;4.92;100.00;98872.67;1713461;82;21596;-76
2021/01/28 10:25:24;;;;;;;18.48;12.58;;;;;;;4.96;100.00;98884.23;1729784;81;21104;-76
2021/01/28 10:27:53;;;;;;;18.57;13.28;;;;;;;5.00;100.00;98876.47;1765248;79;20978;-78
2021/01/28 10:30:25;;;;;;;21.40;14.38;;;;;;;5.00;100.00;98867.43;1790902;79;21520;-76
2021/01/28 10:32:53;;;;;;;20.20;14.05;;;;;;;4.96;100.00;98867.95;1726720;82;21220;-74
2021/01/28 10:35:26;;;;;;;17.10;12.18;;;;;;;4.85;100.00;98864.07;1753698;80;21141;-76
2021/01/28 10:37:54;;;;;;;19.50;13.40;;;;;;;4.77;100.00;98864.14;1731551;81;21504;-75
2021/01/28 10:40:24;;;;;;;18.52;13.98;;;;;;;4.68;100.00;98863.94;1800031;79;21835;-75
2021/01/28 10:42:57;;;;;;;18.82;13.03;;;;;;;4.61;100.00;98865.14;1791339;78;21555;-76
2021/01/28 10:45:33;;;;;;;23.05;14.50;;;;;;;4.59;100.00;98861.95;1785087;79;21206;-74
2021/01/28 10:48:03;;;;;;;21.52;14.80;;;;;;;4.58;100.00;98860.33;1784687;79;21614;-76
2021/01/28 10:50:33;;;;;;;23.40;16.30;;;;;;;4.58;100.00;98866.31;1793535;79;21145;-78
2021/01/28 10:53:02;;;;;;;19.25;14.38;;;;;;;4.61;100.00;98873.67;1789283;78;21176;-75
2021/01/28 10:55:32;;;;;;;21.15;13.85;;;;;;;4.62;100.00;98874.01;1783993;79;21093;-71
2021/01/28 10:58:00;;;;;;;22.30;15.00;;;;;;;4.63;100.00;98869.16;1781686;79;21191;-74
2021/01/28 11:00:30;;;;;;;20.65;15.85;;;;;;;4.64;100.00;98870.74;1786302;78;21001;-74
2021/01/28 11:02:58;;;;;;;24.92;16.97;;;;;;;4.64;100.00;98864.78;1776363;79;21148;-80
2021/01/28 11:05:33;;;;;;;22.93;15.48;;;;;;;4.63;100.00;98866.57;1775486;79;21073;-78
2021/01/28 11:08:01;;;;;;;21.50;16.27;;;;;;;4.64;100.00;98875.91;1776273;79;20975;-77
2021/01/28 11:10:29;;;;;;;25.50;17.17;;;;;;;4.61;100.00;98871.09;1778430;79;21368;-79
2021/01/28 11:12:58;;;;;;;20.37;14.73;;;;;;;4.58;100.00;98874.06;1789306;78;21010;-81
2021/01/28 11:15:32;;;;;;;31.40;18.60;;;;;;;4.58;100.00;98882.27;1785310;79;21540;-80
2021/01/28 11:18:00;;;;;;;28.23;18.27;;;;;;;4.59;100.00;98890.34;1796290;79;21062;-79
2021/01/28 11:20:31;;;;;;;31.77;21.45;;;;;;;4.56;100.00;98882.95;1732482;82;21176;-78
2021/01/28 11:23:00;;;;;;;33.18;19.98;;;;;;;4.53;100.00;98889.25;1752215;81;21371;-77
2021/01/28 11:25:30;;;;;;;27.75;18.48;;;;;;;4.49;100.00;98889.30;1728029;82;21002;-73
2021/01/28 11:27:58;;;;;;;26.82;18.17;;;;;;;4.46;100.00;98888.36;1791220;79;21507;-80
2021/01/28 11:30:29;;;;;;;27.65;17.42;;;;;;;4.44;100.00;98876.14;1795043;79;21119;-78
2021/01/28 11:32:57;;;;;;;27.82;17.45;;;;;;;4.43;100.00;98866.77;1777629;79;21171;-79
2021/01/28 11:35:30;;;;;;;25.37;17.35;;;;;;;4.46;100.00;98879.82;1789774;79;21382;-76
2021/01/28 11:38:02;;;;;;;24.37;16.62;;;;;;;4.46;100.00;98875.95;1784104;78;21177;-78
2021/01/28 11:40:30;;;;;;;24.72;15.48;;;;;;;4.45;100.00;98869.98;1781640;79;21588;-78
2021/01/28 11:42:59;;;;;;;29.57;17.52;;;;;;;4.47;100.00;98862.89;1772417;79;21732;-76
2021/01/28 11:45:29;;;;;;;27.87;19.40;;;;;;;4.47;100.00;98864.17;1726366;83;21670;-77
2021/01/28 11:47:57;;;;;;;27.37;17.17;;;;;;;4.48;100.00;98872.72;1745429;81;21379;-78
2021/01/28 11:50:27;;;;;;;28.15;17.35;;;;;;;4.48;100.00;98865.77;1709641;81;21690;-77
2021/01/28 11:52:55;;;;;;;27.85;17.07;;;;;;;4.46;100.00;98865.13;1720615;82;22319;-69
2021/01/28 11:55:25;;;;;;;26.77;16.95;;;;;;;4.45;100.00;98839.52;1751155;81;21012;-74
2021/01/28 11:57:54;;;;;;;24.32;15.70;;;;;;;4.47;100.00;98832.39;1728420;81;21175;-79
2021/01/28 12:00:22;;;;;;;31.57;17.25;;;;;;;4.49;100.00;98845.44;1727177;82;21214;-78
2021/01/28 12:02:50;;;;;;;24.72;17.00;;;;;;;4.50;100.00;98862.51;1727112;82;21714;-79
2021/01/28 12:05:22;;;;;;;29.02;17.00;;;;;;;4.50;100.00;98863.80;1715510;82;21010;-80
2021/01/28 12:07:53;;;;;;;26.35;15.80;;;;;;;4.49;100.00;98862.70;1718141;81;21128;-75
2021/01/28 12:10:21;;;;;;;73.70;57.78;;;;;;;4.47;100.00;98869.80;1716281;82;21625;-79
2021/01/28 12:12:49;;;;;;;317.65;180.80;;;;;;;4.43;100.00;98873.22;1715940;82;21317;-76
2021/01/28 12:15:18;;;;;;;225.53;151.15;;;;;;;4.42;100.00;98878.08;1747452;80;21759;-80
2021/01/28 12:17:47;;;;;;;343.48;256.75;;;;;;;4.41;100.00;98871.82;1735878;81;21190;-81
2021/01/28 12:20:20;;;;;;;550.65;448.93;;;;;;;4.40;100.00;98886.50;1782840;79;21133;-79
2021/01/28 12:22:48;;;;;;;91.45;67.67;;;;;;;4.40;100.00;98895.53;1791020;79;21637;-70
2021/01/28 12:25:18;;;;;;;213.12;170.82;;;;;;;4.40;100.00;98898.11;1784195;79;21190;-81
2021/01/28 12:27:47;;;;;;;76.35;66.20;;;;;;;4.41;100.00;98903.58;1780814;79;21094;-79
2021/01/28 12:30:19;;;;;;;85.70;73.02;;;;;;;4.43;100.00;98896.45;1727566;82;21151;-80
2021/01/28 12:32:48;;;;;;;41.20;32.08;;;;;;;4.44;100.00;98910.17;1715186;81;21072;-81
2021/01/28 12:35:18;;;;;;;29.75;18.77;;;;;;;4.44;100.00;98920.00;1742357;80;21112;-81
2021/01/28 12:37:47;;;;;;;24.10;18.82;;;;;;;4.43;100.00;98927.41;1721534;82;21647;-80
2021/01/28 12:40:18;;;;;;;30.52;18.98;;;;;;;4.40;100.00;98926.48;1785738;79;21166;-81
2021/01/28 12:42:46;;;;;;;245.10;166.85;;;;;;;4.37;100.00;98934.58;1772031;79;21611;-70
2021/01/28 12:45:15;;;;;;;109.42;73.10;;;;;;;4.35;100.00;98940.39;1775424;79;21161;-81
2021/01/28 12:47:44;;;;;;;404.25;257.00;;;;;;;4.33;100.00;98949.60;1777294;79;21168;-81
2021/01/28 12:50:14;;;;;;;637.40;423.50;;;;;;;4.31;100.00;98952.03;1780900;79;21386;-79
2021/01/28 12:52:43;;;;;;;715.02;477.15;;;;;;;4.29;100.00;98951.42;1780172;79;21804;-80
2021/01/28 12:55:13;;;;;;;180.20;122.67;;;;;;;4.29;100.00;98948.84;1787382;79;21027;-80
2021/01/28 12:57:41;;;;;;;95.32;76.35;;;;;;;4.27;100.00;98949.48;1777451;78;21149;-81
2021/01/28 13:00:14;;;;;;;137.10;118.47;;;;;;;4.25;100.00;98948.87;1783950;78;21164;-82
2021/01/28 13:02:42;;;;;;;78.20;69.95;;;;;;;4.23;100.00;98950.81;1780440;79;21193;-71
2021/01/28 13:05:12;;;;;;;33.83;27.85;;;;;;;4.22;100.00;98959.53;1780532;79;21011;-82
2021/01/28 13:07:41;;;;;;;41.73;31.07;;;;;;;4.23;100.00;98955.97;1790002;79;21046;-80
2021/01/28 13:10:10;;;;;;;28.90;18.50;;;;;;;4.22;100.00;98955.67;1783407;78;21500;-78
2021/01/28 13:12:38;;;;;;;26.27;16.27;;;;;;;4.22;100.00;98958.25;1768387;78;21130;-80
2021/01/28 13:15:11;;;;;;;25.35;16.62;;;;;;;4.22;100.00;98951.80;1738225;81;21393;-79
2021/01/28 13:17:39;;;;;;;40.48;30.43;;;;;;;4.20;100.00;98950.66;1716920;81;21259;-79
2021/01/28 13:20:08;;;;;;;65.32;54.80;;;;;;;4.22;100.00;98959.53;1786901;79;20979;-78
2021/01/28 13:22:37;;;;;;;97.42;70.50;;;;;;;4.22;100.00;98955.67;1779900;78;22551;-79
2021/01/28 13:25:07;;;;;;;309.43;200.28;;;;;;;4.22;100.00;98956.95;1758464;79;21066;-79
2021/01/28 13:27:36;;;;;;;311.15;197.82;;;;;;;4.21;100.00;98954.08;1779363;78;22661;-82
2021/01/28 13:30:06;;;;;;;134.70;88.45;;;;;;;4.20;100.00;98960.19;1781023;79;21189;-79
2021/01/28 13:32:35;;;;;;;70.52;55.10;;;;;;;4.21;100.00;98956.66;1773051;79;21555;-79
2021/01/28 13:35:06;;;;;;;43.48;31.85;;;;;;;4.21;100.00;98951.49;1777613;79;21139;-79
2021/01/28 13:37:34;;;;;;;32.30;21.70;;;;;;;4.23;100.00;98948.23;1771448;79;21193;-81
2021/01/28 13:40:05;;;;;;;555.55;350.73;;;;;;;4.24;100.00;98945.96;1764371;79;21248;-79
2021/01/28 13:42:33;;;;;;;111.97;58.85;;;;;;;4.24;100.00;98941.59;1766833;79;21200;-78
2021/01/28 13:45:02;;;;;;;532.83;239.42;;;;;;;4.24;100.00;98937.73;1766798;78;21523;-81
2021/01/28 13:47:31;;;;;;;401.43;178.97;;;;;;;4.25;100.00;98943.72;1784268;79;21022;-81
2021/01/28 13:49:59;;;;;;;374.62;198.80;;;;;;;4.24;100.00;98937.73;1770475;79;20892;-84
2021/01/28 13:52:28;;;;;;;144.95;99.30;;;;;;;4.23;100.00;98943.08;1787271;79;22745;-82
2021/01/28 13:54:57;;;;;;;46.70;31.77;;;;;;;4.23;100.00;98950.81;1775066;79;20939;-75
2021/01/28 13:57:27;;;;;;;60.25;37.45;;;;;;;4.21;100.00;98950.20;1721871;81;21191;-79
2021/01/28 13:59:56;;;;;;;74.92;58.40;;;;;;;4.19;100.00;98933.59;1716453;83;21136;-81
2021/01/28 14:02:27;;;;;;;357.50;205.98;;;;;;;4.20;100.00;98934.39;1716254;82;21510;-80
2021/01/28 14:04:56;;;;;;;353.42;160.37;;;;;;;4.18;100.00;98941.03;1771140;78;21429;-71
2021/01/28 14:07:25;;;;;;;270.88;115.17;;;;;;;4.19;100.00;98953.43;1773958;79;21219;-81
2021/01/28 14:09:54;;;;;;;358.60;184.57;;;;;;;4.17;100.00;98966.52;1783179;79;21647;-82
2021/01/28 14:12:23;;;;;;;264.77;146.25;;;;;;;4.15;100.00;98971.83;1773561;79;21013;-82
2021/01/28 14:14:52;;;;;;;172.98;92.22;;;;;;;4.12;100.00;98961.84;1782206;78;21529;-72
2021/01/28 14:17:20;;;;;;;190.97;98.90;;;;;;;4.12;100.00;98968.78;1780457;79;22887;-83
2021/01/28 14:19:51;;;;;;;101.87;60.52;;;;;;;4.12;100.00;98958.47;1770107;79;21403;-81
2021/01/28 14:22:19;;;;;;;41.42;24.02;;;;;;;4.11;100.00;98951.72;1774274;78;21467;-81
2021/01/28 14:24:49;;;;;;;35.30;24.50;;;;;;;4.11;100.00;98958.16;1768588;79;21031;-77
2021/01/28 14:27:38;;;;;;;38.63;27.37;;;;;;;4.10;100.00;98971.55;1703749;82;21203;-79
2021/01/28 14:30:10;;;;;;;36.23;23.38;;;;;;;4.10;100.00;98977.20;1713960;83;21013;-80
2021/01/28 14:32:38;;;;;;;37.30;25.60;;;;;;;4.08;100.00;98978.64;1714148;83;21005;-81
2021/01/28 14:35:09;;;;;;;28.87;20.10;;;;;;;4.07;100.00;98964.16;1661632;83;21208;-81
2021/01/28 14:37:37;;;;;;;30.40;21.20;;;;;;;4.07;100.00;98960.28;1697789;82;21248;-83
2021/01/28 14:40:07;;;;;;;24.98;17.23;;;;;;;4.07;100.00;98976.25;1713061;82;21202;-82
2021/01/28 14:42:36;;;;;;;31.57;19.15;;;;;;;4.06;100.00;98978.03;1709327;82;21184;-76
2021/01/28 14:45:08;;;;;;;26.45;18.27;;;;;;;4.05;100.00;98985.92;1707241;82;21199;-79
2021/01/28 14:47:37;;;;;;;27.58;16.77;;;;;;;4.04;100.00;98979.97;1693813;82;21101;-81
2021/01/28 14:50:08;;;;;;;492.90;248.47;;;;;;;4.04;100.00;98976.09;1692061;83;21195;-83
2021/01/28 14:52:36;;;;;;;281.13;119.45;;;;;;;4.04;100.00;98976.09;1711522;82;21146;-75
2021/01/28 14:55:06;;;;;;;283.55;142.68;;;;;;;4.05;100.00;98989.78;1680935;83;21271;-72
2021/01/28 14:57:34;;;;;;;53.78;28.70;;;;;;;4.06;100.00;98996.08;1709804;82;21581;-72
2021/01/28 15:00:04;;;;;;;84.45;56.05;;;;;;;4.07;100.00;98986.56;1689074;82;21583;-71
2021/01/28 15:02:32;;;;;;;53.13;36.13;;;;;;;4.07;100.00;98987.36;1697526;83;21600;-73
2021/01/28 15:05:01;;;;;;;40.55;27.73;;;;;;;4.06;100.00;98988.34;1660099;83;21235;-72
2021/01/28 15:07:30;;;;;;;22.75;14.68;;;;;;;4.06;100.00;98982.39;1711704;82;22278;-72
2021/01/28 15:09:59;;;;;;;29.57;20.10;;;;;;;4.05;100.00;98967.87;1672437;83;21242;-73
2021/01/28 15:12:28;;;;;;;24.67;14.20;;;;;;;4.03;100.00;98951.30;1699805;82;21164;-73
2021/01/28 15:14:57;;;;;;;22.82;11.75;;;;;;;4.00;100.00;98948.25;1657117;83;21306;-75
2021/01/28 15:17:27;;;;;;;22.05;10.85;;;;;;;3.97;100.00;98953.75;1686737;82;21185;-75
2021/01/28 15:19:55;;;;;;;18.20;10.25;;;;;;;3.93;100.00;98941.69;1701899;82;21376;-75
2021/01/28 15:22:24;;;;;;;21.85;11.48;;;;;;;3.89;100.00;98953.33;1701864;82;21576;-73
2021/01/28 15:24:53;;;;;;;44.38;25.27;;;;;;;3.86;100.00;98958.81;1702811;83;21252;-75
2021/01/28 15:27:21;;;;;;;126.95;65.95;;;;;;;3.82;100.00;98955.78;1693200;82;21125;-76
2021/01/28 15:29:50;;;;;;;50.73;28.50;;;;;;;3.79;100.00;98954.02;1700070;82;21564;-76
2021/01/28 15:32:19;;;;;;;60.58;39.45;;;;;;;3.75;100.00;98954.05;1679408;83;21586;-71
2021/01/28 15:34:50;;;;;;;45.55;31.05;;;;;;;3.69;100.00;98961.20;1700259;83;21247;-77
2021/01/28 15:37:18;;;;;;;26.90;17.02;;;;;;;3.63;100.00;98975.06;1668642;84;21605;-78
2021/01/28 15:39:46;;;;;;;31.07;17.77;;;;;;;3.58;100.00;98978.64;1700081;83;21261;-76
2021/01/28 15:42:16;;;;;;;20.27;13.80;;;;;;;3.55;100.00;98977.69;1663175;83;21572;-72
2021/01/28 15:44:45;;;;;;;23.87;15.23;;;;;;;3.56;100.00;98979.31;1673914;83;21702;-81
2021/01/28 15:47:15;;;;;;;18.42;10.75;;;;;;;3.57;100.00;98972.37;1678300;83;20994;-79
2021/01/28 15:49:44;;;;;;;20.17;8.93;;;;;;;3.57;100.00;98972.37;1687737;83;21220;-77
2021/01/28 15:52:13;;;;;;;21.73;10.32;;;;;;;3.57;100.00;98976.24;1679773;83;21165;-79
2021/01/28 15:54:41;;;;;;;21.27;10.20;;;;;;;3.56;100.00;98968.17;1688024;82;22022;-80
2021/01/28 15:57:10;;;;;;;16.77;8.55;;;;;;;3.51;100.00;98994.45;1690359;83;22180;-82